Time;durP1;ratioP1;P1;durP2;ratioP2;P2;SDS_P1;SDS_P2;PMS_P1;PMS_P2;Temp;Humidity;BMP_temperature;BMP_pressure;BME280_temperature;BME280_humidity;BME280_pressure;Samples;Min_cycle;Max_cycle;Signal;HPM_P1;HPM_P2
2022/06/05 00:00:38;;;;;;;;;;;;;;;16.78;58.00;100765.36;1679529;85;20187;-57
2022/06/05 00:04:01;;;;;;;;;;;;;;;16.75;57.96;100763.02;1679618;85;20211;-57
2022/06/05 00:07:33;;;;;;;;;;;;;;;16.74;58.06;100762.18;1679538;85;20211;-56
2022/06/05 00:10:47;;;;;;;;;;;;;;;16.73;58.11;100754.09;1679523;85;20203;-55
2022/06/05 00:13:58;;;;;;;;;;;;;;;16.72;58.14;100747.70;1679462;85;20208;-57
2022/06/05 00:17:02;;;;;;;;;;;;;;;16.70;58.21;100740.69;1679433;85;20669;-59
2022/06/05 00:20:06;;;;;;;;;;;;;;;16.69;58.25;100744.49;1679520;85;20247;-56
2022/06/05 00:23:11;;;;;;;;;;;;;;;16.69;58.26;100741.73;1679509;85;20231;-57
2022/06/05 00:26:22;;;;;;;;;;;;;;;16.65;58.28;100747.36;1679617;85;20302;-55
2022/06/05 00:29:33;;;;;;;;;;;;;;;16.59;58.29;100740.73;1679620;85;20271;-56
2022/06/05 00:32:48;;;;;;;;;;;;;;;16.54;58.32;100731.36;1679668;85;20247;-56
2022/06/05 00:35:59;;;;;;;;;;;;;;;16.47;58.40;100724.42;1679584;85;20207;-56
2022/06/05 00:39:44;;;;;;;;;;;;;;;16.43;58.46;100717.03;1679481;85;20192;-55
2022/06/05 00:42:49;;;;;;;;;;;;;;;16.41;58.52;100715.55;1679531;85;20222;-58
2022/06/05 00:45:54;;;;;;;;;;;;;;;16.35;58.57;100705.28;1679500;85;20234;-56
2022/06/05 00:49:01;;;;;;;;;;;;;;;16.32;58.65;100695.51;1679169;84;20323;-56
2022/06/05 00:52:04;;;;;;;;;;;;;;;16.30;58.72;100690.71;1679475;85;20575;-56
2022/06/05 00:55:10;;;;;;;;;;;;;;;16.32;58.86;100680.83;1679490;85;20259;-57
2022/06/05 00:58:15;;;;;;;;;;;;;;;16.35;58.95;100675.75;1679607;85;20195;-56
2022/06/05 01:01:20;;;;;;;;;;;;;;;16.34;58.93;100673.20;1679525;85;20552;-58
2022/06/05 01:04:27;;;;;;;;;;;;;;;16.35;59.00;100670.23;1679601;85;20298;-56
2022/06/05 01:07:32;;;;;;;;;;;;;;;16.37;59.07;100666.73;1679496;85;20532;-58
2022/06/05 01:10:54;;;;;;;;;;;;;;;16.38;59.12;100664.28;1679462;85;20251;-58
2022/06/05 01:14:30;;;;;;;;;;;;;;;16.38;59.13;100674.48;1679326;85;20243;-58
2022/06/05 01:17:54;;;;;;;;;;;;;;;16.33;59.08;100677.86;1648321;86;20217;-57
2022/06/05 01:21:28;;;;;;;;;;;;;;;16.24;59.04;100676.86;1679376;85;20207;-57
2022/06/05 01:24:36;;;;;;;;;;;;;;;16.17;59.12;100689.26;1679517;85;20187;-57
2022/06/05 01:27:42;;;;;;;;;;;;;;;16.12;59.22;100686.80;1679591;85;20207;-57
2022/06/05 01:30:58;;;;;;;;;;;;;;;16.07;59.28;100690.18;1679580;85;20203;-57
2022/06/05 01:34:08;;;;;;;;;;;;;;;16.02;59.40;100680.27;1646609;87;20217;-58
2022/06/05 01:37:18;;;;;;;;;;;;;;;16.02;59.50;100678.88;1678695;85;20212;-55
2022/06/05 01:40:26;;;;;;;;;;;;;;;16.01;59.56;100684.09;1679131;85;20235;-54
2022/06/05 01:43:34;;;;;;;;;;;;;;;16.00;59.64;100678.23;1679181;85;20215;-55
2022/06/05 01:46:41;;;;;;;;;;;;;;;16.01;59.68;100682.72;1663541;85;20219;-57
2022/06/05 01:49:49;;;;;;;;;;;;;;;15.99;59.71;100682.05;1679172;83;20602;-56
2022/06/05 01:53:00;;;;;;;;;;;;;;;15.98;59.76;100687.78;1689135;85;20186;-55
2022/06/05 01:56:22;;;;;;;;;;;;;;;15.98;59.83;100687.23;1689394;85;20238;-57
2022/06/05 01:59:41;;;;;;;;;;;;;;;15.98;59.84;100683.09;1662192;85;20210;-56
2022/06/05 02:02:50;;;;;;;;;;;;;;;15.96;59.87;100682.47;1636023;86;20229;-56
2022/06/05 02:06:07;;;;;;;;;;;;;;;15.98;59.92;100679.50;1681778;85;20215;-55
2022/06/05 02:09:23;;;;;;;;;;;;;;;15.97;59.93;100678.64;1681626;85;20203;-56
2022/06/05 02:12:27;;;;;;;;;;;;;;;15.97;59.99;100678.64;1681425;85;20195;-55
2022/06/05 02:15:33;;;;;;;;;;;;;;;16.01;60.03;100668.05;1681753;85;20606;-57
2022/06/05 02:18:40;;;;;;;;;;;;;;;16.05;60.05;100669.33;1681703;85;20532;-54
2022/06/05 02:21:46;;;;;;;;;;;;;;;16.10;60.09;100661.28;1681909;85;20228;-56
2022/06/05 02:24:49;;;;;;;;;;;;;;;16.18;60.11;100668.02;1681776;85;20527;-62
2022/06/05 02:27:55;;;;;;;;;;;;;;;16.26;60.11;100665.95;1681889;85;20262;-56
2022/06/05 02:31:24;;;;;;;;;;;;;;;16.33;60.14;100663.22;1681750;85;20196;-56
2022/06/05 02:34:38;;;;;;;;;;;;;;;16.42;60.14;100666.12;1681345;85;20195;-57
2022/06/05 02:38:06;;;;;;;;;;;;;;;16.51;60.08;100664.89;1681783;85;20287;-55
2022/06/05 02:41:15;;;;;;;;;;;;;;;16.56;60.09;100660.13;1681774;85;20235;-58
2022/06/05 02:44:38;;;;;;;;;;;;;;;16.59;60.10;100666.62;1665984;85;20191;-56
2022/06/05 02:47:46;;;;;;;;;;;;;;;16.59;60.07;100671.63;1681691;85;20227;-59
2022/06/05 02:50:54;;;;;;;;;;;;;;;16.59;60.06;100670.24;1681453;83;20587;-57
2022/06/05 02:54:05;;;;;;;;;;;;;;;16.56;60.01;100661.50;1671448;85;20208;-57
2022/06/05 02:57:13;;;;;;;;;;;;;;;16.54;60.05;100656.19;1670892;86;20259;-58
2022/06/05 03:00:20;;;;;;;;;;;;;;;16.53;60.08;100660.54;1670804;86;20192;-56
2022/06/05 03:03:28;;;;;;;;;;;;;;;16.54;60.13;100656.19;1670852;86;20552;-56
2022/06/05 03:06:38;;;;;;;;;;;;;;;16.55;60.15;100649.63;1670861;85;20203;-58
2022/06/05 03:09:43;;;;;;;;;;;;;;;16.60;60.20;100650.37;1670824;86;20247;-58
2022/06/05 03:12:48;;;;;;;;;;;;;;;16.64;60.20;100653.03;1670773;85;20235;-56
2022/06/05 03:15:52;;;;;;;;;;;;;;;16.70;60.28;100645.30;1670781;86;20199;-55
2022/06/05 03:18:57;;;;;;;;;;;;;;;16.78;60.28;100651.99;1670743;86;20227;-57
2022/06/05 03:22:04;;;;;;;;;;;;;;;16.83;60.28;100649.45;1670794;86;20243;-57
2022/06/05 03:25:10;;;;;;;;;;;;;;;16.90;60.33;100653.10;1670759;86;20220;-57
2022/06/05 03:28:17;;;;;;;;;;;;;;;16.98;60.33;100658.44;1670783;86;20251;-58
2022/06/05 03:31:21;;;;;;;;;;;;;;;17.02;60.29;100654.17;1670840;86;20204;-57
2022/06/05 03:34:26;;;;;;;;;;;;;;;17.04;60.27;100658.97;1670874;86;20239;-58
2022/06/05 03:37:30;;;;;;;;;;;;;;;17.05;60.27;100663.42;1670854;86;20258;-58
2022/06/05 03:40:35;;;;;;;;;;;;;;;17.10;60.33;100660.89;1670739;86;20560;-58
2022/06/05 03:43:40;;;;;;;;;;;;;;;17.16;60.35;100665.56;1670873;86;20244;-57
2022/06/05 03:46:45;;;;;;;;;;;;;;;17.23;60.38;100660.91;1646944;86;20322;-57
2022/06/05 03:49:51;;;;;;;;;;;;;;;17.29;60.42;100659.53;1643565;87;20576;-56
2022/06/05 03:52:56;;;;;;;;;;;;;;;17.40;60.48;100656.12;1642863;84;20233;-58
2022/06/05 03:56:01;;;;;;;;;;;;;;;17.54;60.48;100643.14;1643748;87;20546;-57
2022/06/05 03:59:07;;;;;;;;;;;;;;;17.68;60.50;100648.45;1643666;87;20214;-56
2022/06/05 04:02:13;;;;;;;;;;;;;;;17.83;60.48;100639.91;1643409;87;20290;-58
2022/06/05 04:05:18;;;;;;;;;;;;;;;17.98;60.46;100644.68;1643367;87;20235;-55
2022/06/05 04:08:23;;;;;;;;;;;;;;;18.09;60.41;100637.08;1649871;86;20524;-56
2022/06/05 04:11:28;;;;;;;;;;;;;;;18.17;60.32;100635.42;1642777;87;20214;-58
2022/06/05 04:14:33;;;;;;;;;;;;;;;18.26;60.31;100636.05;1642886;87;20570;-58
2022/06/05 04:17:37;;;;;;;;;;;;;;;18.34;60.27;100638.05;1643720;87;20214;-57
2022/06/05 04:20:43;;;;;;;;;;;;;;;18.41;60.24;100633.89;1643659;87;20190;-59
2022/06/05 04:23:48;;;;;;;;;;;;;;;18.52;60.31;100625.71;1643599;87;20272;-57
2022/06/05 04:26:52;;;;;;;;;;;;;;;18.66;60.35;100627.89;1643340;87;20616;-55
2022/06/05 04:29:58;;;;;;;;;;;;;;;18.78;60.33;100621.94;1643348;87;20249;-57
2022/06/05 04:32:59;;;;;;;;;;;;;;;18.84;60.23;100614.96;1643107;87;20221;-57
2022/06/05 04:36:03;;;;;;;;;;;;;;;18.88;60.14;100612.59;1643146;87;20222;-59
2022/06/05 04:39:11;;;;;;;;;;;;;;;18.93;60.10;100626.09;1643166;87;20548;-57
2022/06/05 04:42:15;;;;;;;;;;;;;;;18.96;60.03;100635.91;1643084;87;20214;-58
2022/06/05 04:45:18;;;;;;;;;;;;;;;19.02;60.06;100631.70;1643287;87;20329;-56
2022/06/05 04:48:23;;;;;;;;;;;;;;;19.05;59.96;100624.31;1643623;87;20194;-55
2022/06/05 04:51:30;;;;;;;;;;;;;;;19.09;59.97;100613.63;1643584;87;20538;-56
2022/06/05 04:54:34;;;;;;;;;;;;;;;19.13;59.94;100612.94;1658062;84;20564;-55
2022/06/05 04:57:36;;;;;;;;;;;;;;;19.16;59.90;100618.56;1683995;85;20267;-57
2022/06/05 05:00:41;;;;;;;;;;;;;;;19.17;59.84;100622.50;1683982;85;20219;-57
2022/06/05 05:03:47;;;;;;;;;;;;;;;19.25;59.93;100626.91;1684003;85;20230;-55
2022/06/05 05:06:53;;;;;;;;;;;;;;;19.34;59.86;100618.67;1683669;83;20583;-57
2022/06/05 05:09:58;;;;;;;;;;;;;;;19.43;59.90;100612.27;1683581;85;20519;-56
2022/06/05 05:13:03;;;;;;;;;;;;;;;19.50;59.81;100604.75;1683238;85;20245;-59
2022/06/05 05:16:08;;;;;;;;;;;;;;;19.59;59.83;100606.14;1683751;85;20210;-57
2022/06/05 05:19:18;;;;;;;;;;;;;;;19.64;59.77;100605.78;1677110;85;20298;-59
2022/06/05 05:22:22;;;;;;;;;;;;;;;19.71;59.75;100611.27;1673402;85;20215;-56
2022/06/05 05:25:27;;;;;;;;;;;;;;;19.81;59.77;100607.41;1655960;87;20257;-52
2022/06/05 05:28:33;;;;;;;;;;;;;;;19.90;59.72;100613.81;1655577;87;20569;-57
2022/06/05 05:31:44;;;;;;;;;;;;;;;20.02;59.67;100604.17;1656245;87;20181;-57
2022/06/05 05:34:49;;;;;;;;;;;;;;;20.07;59.51;100603.80;1656338;87;20213;-58
2022/06/05 05:37:55;;;;;;;;;;;;;;;20.14;59.47;100612.07;1669583;83;20278;-57
2022/06/05 05:44:22;;;;;;;;;;;;;;;20.41;59.43;100619.00;1682871;85;20226;-58
2022/06/05 05:47:28;;;;;;;;;;;;;;;20.52;59.33;100607.08;1682926;85;20203;-59
2022/06/05 05:50:32;;;;;;;;;;;;;;;20.57;59.13;100615.58;1681007;85;20247;-58
2022/06/05 05:53:37;;;;;;;;;;;;;;;20.54;59.01;100607.17;1683201;85;20218;-58
2022/06/05 05:56:43;;;;;;;;;;;;;;;20.63;59.04;100609.06;1647291;85;20235;-59
2022/06/05 05:59:49;;;;;;;;;;;;;;;20.80;59.11;100597.60;1625904;86;20232;-57
2022/06/05 06:02:54;;;;;;;;;;;;;;;21.00;59.06;100592.59;1613609;89;20223;-56
2022/06/05 06:06:01;;;;;;;;;;;;;;;21.12;58.83;100603.77;1614635;88;20225;-56
2022/06/05 06:09:05;;;;;;;;;;;;;;;21.21;58.65;100602.33;1600481;89;20224;-59
2022/06/05 06:12:12;;;;;;;;;;;;;;;21.31;58.63;100589.50;1614328;88;20287;-59
2022/06/05 06:15:17;;;;;;;;;;;;;;;21.49;58.51;100602.47;1613987;89;20208;-57
2022/06/05 06:18:23;;;;;;;;;;;;;;;21.53;58.27;100604.53;1613705;89;20224;-56
2022/06/05 06:21:28;;;;;;;;;;;;;;;21.56;58.19;100601.28;1613728;89;20241;-60
2022/06/05 06:24:35;;;;;;;;;;;;;;;21.64;58.09;100595.89;1614138;88;20216;-57
2022/06/05 06:27:41;;;;;;;;;;;;;;;21.70;58.00;100602.73;1613959;89;20232;-57
2022/06/05 06:30:49;;;;;;;;;;;;;;;21.84;57.98;100600.03;1613941;89;20284;-59
2022/06/05 06:33:54;;;;;;;;;;;;;;;21.95;57.84;100592.20;1641725;87;20249;-59
2022/06/05 06:37:00;;;;;;;;;;;;;;;21.98;57.61;100595.88;1640612;85;20214;-58
2022/06/05 06:40:03;;;;;;;;;;;;;;;22.04;57.55;100601.88;1645267;87;20657;-57
2022/06/05 06:43:09;;;;;;;;;;;;;;;22.09;57.49;100607.56;1631464;87;20213;-59
2022/06/05 06:46:14;;;;;;;;;;;;;;;22.17;57.44;100605.80;1645831;87;20202;-57
2022/06/05 06:49:20;;;;;;;;;;;;;;;22.29;57.36;100606.31;1646076;87;20205;-59
2022/06/05 06:52:25;;;;;;;;;;;;;;;22.35;57.21;100607.56;1646444;87;20569;-57
2022/06/05 06:55:32;;;;;;;;;;;;;;;22.45;57.13;100599.95;1642579;86;20257;-59
2022/06/05 06:58:36;;;;;;;;;;;;;;;22.58;57.01;100603.89;1617898;89;20219;-57
2022/06/05 07:01:41;;;;;;;;;;;;;;;22.72;56.92;100614.48;1618444;87;20595;-57
2022/06/05 07:04:45;;;;;;;;;;;;;;;22.87;56.79;100615.33;1613539;88;20247;-58
2022/06/05 07:07:53;;;;;;;;;;;;;;;23.04;56.59;100619.03;1652032;85;20265;-56
2022/06/05 07:10:57;;;;;;;;;;;;;;;23.18;56.39;100617.61;1651444;87;20214;-58
2022/06/05 07:14:04;;;;;;;;;;;;;;;23.34;56.27;100611.22;1651582;85;20240;-59
2022/06/05 07:17:11;;;;;;;;;;;;;;;23.40;56.01;100604.04;1650915;87;20238;-56
2022/06/05 07:20:16;;;;;;;;;;;;;;;23.52;56.02;100600.63;1650951;87;20629;-58
2022/06/05 07:23:21;;;;;;;;;;;;;;;23.72;55.92;100588.92;1651583;87;20227;-57
2022/06/05 07:26:28;;;;;;;;;;;;;;;23.81;55.78;100594.91;1627574;85;20510;-60
2022/06/05 07:29:33;;;;;;;;;;;;;;;23.96;55.56;100609.13;1619164;89;20673;-58
2022/06/05 07:32:38;;;;;;;;;;;;;;;23.99;55.37;100601.08;1619486;89;20326;-57
2022/06/05 07:35:42;;;;;;;;;;;;;;;24.02;55.20;100606.73;1619608;89;20287;-60
2022/06/05 07:38:47;;;;;;;;;;;;;;;24.07;55.12;100592.81;1619654;89;20233;-60
2022/06/05 07:41:54;;;;;;;;;;;;;;;24.10;54.87;100594.52;1619936;89;20220;-59
2022/06/05 07:44:59;;;;;;;;;;;;;;;24.12;54.68;100594.30;1620077;89;20560;-59
2022/06/05 07:48:04;;;;;;;;;;;;;;;24.14;54.60;100599.91;1620099;89;20564;-56
2022/06/05 07:54:39;;;;;;;;;;;;;;;24.24;54.50;100604.25;1620100;89;20556;-58
2022/06/05 07:57:44;;;;;;;;;;;;;;;24.34;54.46;100604.36;1623729;86;20235;-60
2022/06/05 08:00:49;;;;;;;;;;;;;;;24.50;54.39;100611.84;1628001;88;20668;-60
2022/06/05 08:03:55;;;;;;;;;;;;;;;24.58;54.15;100611.94;1628104;88;20279;-59
2022/06/05 08:07:02;;;;;;;;;;;;;;;24.48;53.90;100620.23;1627975;88;20258;-60
2022/06/05 08:10:11;;;;;;;;;;;;;;;24.30;53.90;100615.80;1628024;88;20231;-61
2022/06/05 08:13:14;;;;;;;;;;;;;;;24.20;53.96;100602.20;1628017;88;20575;-59
2022/06/05 08:16:19;;;;;;;;;;;;;;;24.14;53.84;100602.70;1628345;88;20236;-60
2022/06/05 08:19:27;;;;;;;;;;;;;;;24.05;53.86;100595.88;1628262;88;20275;-58
2022/06/05 08:22:32;;;;;;;;;;;;;;;23.99;53.78;100601.08;1628253;88;20219;-57
2022/06/05 08:25:39;;;;;;;;;;;;;;;23.97;53.80;100605.25;1628497;88;20599;-58
2022/06/05 08:28:45;;;;;;;;;;;;;;;24.07;53.80;100603.44;1627989;88;20223;-58
2022/06/05 08:31:49;;;;;;;;;;;;;;;24.13;53.57;100594.03;1627867;88;20580;-59
2022/06/05 08:34:54;;;;;;;;;;;;;;;24.18;53.52;100589.87;1632634;88;20518;-58
2022/06/05 08:41:37;;;;;;;;;;;;;;;24.21;53.21;100589.39;1659332;86;20613;-57
2022/06/05 08:44:52;;;;;;;;;;;;;;;24.32;53.16;100589.81;1641307;86;20217;-59
2022/06/05 08:48:09;;;;;;;;;;;;;;;24.46;53.07;100594.44;1659766;84;20253;-60
2022/06/05 08:51:31;;;;;;;;;;;;;;;24.48;52.74;100590.84;1632633;88;20578;-59
2022/06/05 08:54:52;;;;;;;;;;;;;;;24.49;52.56;100598.97;1649917;86;20232;-60
2022/06/05 08:58:05;;;;;;;;;;;;;;;24.56;52.39;100602.40;1663043;83;20263;-59
2022/06/05 09:01:18;;;;;;;;;;;;;;;24.57;52.28;100606.05;1678581;85;20216;-59
2022/06/05 09:04:50;;;;;;;;;;;;;;;24.53;52.08;100609.92;1650336;87;20221;-61
2022/06/05 09:07:56;;;;;;;;;;;;;;;24.47;51.93;100601.72;1677687;85;20572;-59
2022/06/05 09:11:14;;;;;;;;;;;;;;;24.47;51.86;100598.92;1650468;87;20194;-58
2022/06/05 09:14:37;;;;;;;;;;;;;;;24.45;51.71;100599.77;1675624;84;20220;-60
2022/06/05 09:17:42;;;;;;;;;;;;;;;24.38;51.63;100599.95;1702073;84;20213;-60
2022/06/05 09:20:56;;;;;;;;;;;;;;;24.29;51.47;100604.30;1675409;84;20223;-60
2022/06/05 09:24:30;;;;;;;;;;;;;;;24.32;51.44;100604.34;1675483;84;20605;-58
2022/06/05 09:28:00;;;;;;;;;;;;;;;24.27;51.25;100594.48;1638679;84;20223;-60
2022/06/05 09:31:27;;;;;;;;;;;;;;;24.20;51.21;100591.02;1620840;87;20221;-59
2022/06/05 09:34:38;;;;;;;;;;;;;;;24.25;51.15;100596.69;1645312;87;20224;-60
2022/06/05 09:37:52;;;;;;;;;;;;;;;24.30;51.07;100603.20;1646165;87;20265;-60
2022/06/05 09:41:15;;;;;;;;;;;;;;;24.34;50.92;100588.97;1668026;86;20579;-60
2022/06/05 09:44:37;;;;;;;;;;;;;;;24.37;50.76;100585.65;1671325;85;20212;-57
2022/06/05 09:47:55;;;;;;;;;;;;;;;24.44;50.61;100586.31;1672617;85;20245;-59
2022/06/05 09:51:01;;;;;;;;;;;;;;;24.49;50.39;100593.37;1650759;87;20215;-58
2022/06/05 09:54:24;;;;;;;;;;;;;;;24.52;50.18;100588.65;1624615;88;20579;-56
2022/06/05 10:01:05;;;;;;;;;;;;;;;24.65;50.03;100579.84;1675084;85;20208;-58
2022/06/05 10:04:11;;;;;;;;;;;;;;;24.75;49.89;100582.77;1678607;85;20216;-57
2022/06/05 10:07:26;;;;;;;;;;;;;;;24.82;49.80;100577.82;1675311;85;20576;-59
2022/06/05 10:10:36;;;;;;;;;;;;;;;24.85;49.59;100577.29;1677459;85;20207;-59
2022/06/05 10:14:01;;;;;;;;;;;;;;;24.94;49.48;100575.69;1678236;85;20188;-59
2022/06/05 10:17:24;;;;;;;;;;;;;;;24.97;49.35;100569.55;1631399;87;20324;-56
2022/06/05 10:20:43;;;;;;;;;;;;;;;24.99;49.23;100572.94;1618570;89;20556;-58
2022/06/05 10:23:56;;;;;;;;;;;;;;;25.00;49.20;100568.20;1632232;88;20219;-60
2022/06/05 10:27:04;;;;;;;;;;;;;;;24.95;48.99;100568.14;1648433;87;20301;-57
2022/06/05 10:30:09;;;;;;;;;;;;;;;24.92;48.90;100569.53;1645780;87;20285;-57
2022/06/05 10:33:25;;;;;;;;;;;;;;;24.84;48.86;100558.80;1667523;86;20544;-56
2022/06/05 10:36:36;;;;;;;;;;;;;;;24.82;48.85;100561.02;1668158;86;20538;-59
2022/06/05 10:39:55;;;;;;;;;;;;;;;24.75;48.68;100557.56;1667835;86;20315;-58
2022/06/05 10:43:22;;;;;;;;;;;;;;;24.64;48.56;100570.31;1667118;85;20575;-58
2022/06/05 10:46:28;;;;;;;;;;;;;;;24.48;48.55;100566.47;1667805;86;20283;-56
2022/06/05 10:49:40;;;;;;;;;;;;;;;24.37;48.54;100563.25;1677377;85;20575;-57
2022/06/05 10:52:57;;;;;;;;;;;;;;;24.36;48.53;100562.13;1678807;85;20606;-57
2022/06/05 10:56:07;;;;;;;;;;;;;;;24.28;48.51;100559.23;1679136;85;20243;-59
2022/06/05 10:59:31;;;;;;;;;;;;;;;24.28;48.55;100563.98;1679122;85;20255;-59
2022/06/05 11:02:55;;;;;;;;;;;;;;;24.27;48.55;100556.16;1683149;85;20235;-62
2022/06/05 11:06:28;;;;;;;;;;;;;;;24.28;48.46;100549.98;1651661;85;20455;-59
2022/06/05 11:09:45;;;;;;;;;;;;;;;24.29;48.41;100549.72;1648422;87;20217;-59
2022/06/05 11:16:40;;;;;;;;;;;;;;;24.18;48.20;100543.71;1644223;87;20237;-58
2022/06/05 11:19:54;;;;;;;;;;;;;;;24.14;48.21;100541.16;1644148;87;20221;-57
2022/06/05 11:23:03;;;;;;;;;;;;;;;24.18;48.24;100535.89;1678989;84;20290;-57
2022/06/05 11:26:25;;;;;;;;;;;;;;;24.19;48.18;100534.23;1688479;84;20561;-57
2022/06/05 11:30:00;;;;;;;;;;;;;;;24.18;48.22;100542.31;1690271;84;20256;-56
2022/06/05 11:33:14;;;;;;;;;;;;;;;24.22;48.19;100544.04;1651602;86;20220;-59
2022/06/05 11:36:21;;;;;;;;;;;;;;;24.18;48.08;100545.11;1651860;86;20213;-59
2022/06/05 11:39:41;;;;;;;;;;;;;;;24.11;48.05;100538.87;1695150;84;20552;-59
2022/06/05 11:42:59;;;;;;;;;;;;;;;24.10;48.07;100542.77;1690644;84;20632;-58
2022/06/05 11:46:18;;;;;;;;;;;;;;;24.12;48.05;100547.55;1683324;84;20221;-58
2022/06/05 11:49:29;;;;;;;;;;;;;;;24.10;48.02;100546.96;1682480;84;20228;-58
2022/06/05 11:52:50;;;;;;;;;;;;;;;24.12;48.00;100550.36;1673343;84;20603;-59
2022/06/05 11:56:16;;;;;;;;;;;;;;;24.17;47.98;100553.77;1650367;87;20217;-58
2022/06/05 11:59:23;;;;;;;;;;;;;;;24.24;47.93;100545.49;1652520;85;20186;-59
2022/06/05 12:02:49;;;;;;;;;;;;;;;24.33;47.89;100554.25;1677479;84;20562;-57
2022/06/05 12:06:17;;;;;;;;;;;;;;;24.41;47.86;100550.99;1661814;85;20231;-61
2022/06/05 12:09:27;;;;;;;;;;;;;;;24.47;47.76;100547.14;1672946;85;20245;-57
2022/06/05 12:12:46;;;;;;;;;;;;;;;24.46;47.56;100543.52;1650739;87;20234;-56
2022/06/05 12:15:56;;;;;;;;;;;;;;;24.45;47.49;100545.17;1649749;87;20514;-56
2022/06/05 12:19:16;;;;;;;;;;;;;;;24.53;47.45;100556.73;1649021;87;20234;-54
2022/06/05 12:22:42;;;;;;;;;;;;;;;24.66;47.32;100553.56;1674769;85;20214;-57
2022/06/05 12:26:19;;;;;;;;;;;;;;;24.91;47.30;100555.21;1678605;85;20211;-59
2022/06/05 12:29:26;;;;;;;;;;;;;;;25.15;47.09;100554.31;1677910;85;20218;-57
2022/06/05 12:32:49;;;;;;;;;;;;;;;25.46;46.93;100558.25;1677700;85;20207;-59
2022/06/05 12:35:59;;;;;;;;;;;;;;;25.70;46.76;100552.54;1678254;85;20227;-59
2022/06/05 12:39:08;;;;;;;;;;;;;;;25.86;46.52;100548.13;1676926;85;20251;-55
2022/06/05 12:42:28;;;;;;;;;;;;;;;25.91;46.37;100544.54;1676744;84;20211;-60
2022/06/05 12:45:38;;;;;;;;;;;;;;;25.76;46.07;100545.29;1677690;85;20215;-61
2022/06/05 12:48:44;;;;;;;;;;;;;;;25.71;46.16;100549.45;1677549;85;20274;-58
2022/06/05 12:51:52;;;;;;;;;;;;;;;25.72;46.10;100547.52;1662554;85;20580;-58
2022/06/05 12:55:05;;;;;;;;;;;;;;;25.68;46.03;100556.16;1677900;84;20226;-60
2022/06/05 12:58:20;;;;;;;;;;;;;;;25.73;45.95;100553.39;1679388;85;20199;-59
2022/06/05 13:01:29;;;;;;;;;;;;;;;25.78;45.83;100547.82;1679319;85;20528;-61
2022/06/05 13:04:55;;;;;;;;;;;;;;;25.76;45.70;100557.06;1649614;86;20225;-61
2022/06/05 13:08:06;;;;;;;;;;;;;;;25.74;45.69;100550.87;1649496;86;20625;-57
2022/06/05 13:11:24;;;;;;;;;;;;;;;25.56;45.56;100556.35;1650106;86;20241;-58
2022/06/05 13:14:50;;;;;;;;;;;;;;;25.39;45.51;100553.41;1649824;86;20573;-58
2022/06/05 13:18:03;;;;;;;;;;;;;;;25.17;45.48;100545.63;1649475;86;20220;-58
2022/06/05 13:21:25;;;;;;;;;;;;;;;25.08;45.56;100553.13;1649822;86;20217;-55
2022/06/05 13:25:00;;;;;;;;;;;;;;;25.00;45.54;100549.44;1650075;86;20565;-56
2022/06/05 13:28:26;;;;;;;;;;;;;;;24.99;45.57;100546.33;1649800;86;20255;-55
2022/06/05 13:32:07;;;;;;;;;;;;;;;25.00;45.60;100547.19;1649256;86;20579;-55
2022/06/05 13:35:30;;;;;;;;;;;;;;;25.02;45.55;100550.00;1648972;86;20641;-57
2022/06/05 13:38:57;;;;;;;;;;;;;;;24.97;45.43;100551.34;1649752;86;20277;-62
2022/06/05 13:42:14;;;;;;;;;;;;;;;24.92;45.37;100549.92;1649730;86;20601;-59
2022/06/05 13:45:33;;;;;;;;;;;;;;;24.87;45.33;100552.67;1645300;86;20223;-57
2022/06/05 13:48:53;;;;;;;;;;;;;;;24.87;45.34;100549.87;1640425;86;20229;-58
2022/06/05 13:52:27;;;;;;;;;;;;;;;24.82;45.23;100546.16;1648240;85;20497;-59
2022/06/05 13:55:39;;;;;;;;;;;;;;;24.66;45.19;100535.36;1646788;86;20249;-57
2022/06/05 13:59:11;;;;;;;;;;;;;;;24.58;45.25;100534.40;1644200;85;20209;-55
2022/06/05 14:02:44;;;;;;;;;;;;;;;24.61;45.27;100528.27;1652757;86;20229;-58
2022/06/05 14:05:57;;;;;;;;;;;;;;;24.68;45.29;100530.34;1652502;86;20233;-57
2022/06/05 14:09:12;;;;;;;;;;;;;;;24.71;45.27;100536.81;1652177;87;20308;-58
2022/06/05 14:12:35;;;;;;;;;;;;;;;24.74;45.22;100534.89;1652379;87;20573;-58
2022/06/05 14:15:53;;;;;;;;;;;;;;;24.74;45.17;100536.28;1642012;86;20591;-55
2022/06/05 14:19:04;;;;;;;;;;;;;;;24.73;45.15;100531.80;1645534;86;20206;-59
2022/06/05 14:22:31;;;;;;;;;;;;;;;24.67;45.10;100532.02;1645837;87;20277;-59
2022/06/05 14:25:51;;;;;;;;;;;;;;;24.58;45.09;100524.59;1645320;86;20972;-58
2022/06/05 14:28:55;;;;;;;;;;;;;;;24.55;45.15;100522.33;1645507;86;20332;-56
2022/06/05 14:32:06;;;;;;;;;;;;;;;24.51;45.12;100520.33;1646181;87;20546;-56
2022/06/05 14:35:26;;;;;;;;;;;;;;;24.45;45.14;100515.21;1647103;86;20221;-55
2022/06/05 14:38:52;;;;;;;;;;;;;;;24.46;45.21;100517.47;1646238;87;20562;-57
2022/06/05 14:42:24;;;;;;;;;;;;;;;24.50;45.17;100513.88;1645692;87;20265;-56
2022/06/05 14:45:33;;;;;;;;;;;;;;;24.53;45.20;100514.73;1646740;87;20249;-58
2022/06/05 14:48:41;;;;;;;;;;;;;;;24.54;45.19;100508.59;1647770;86;20621;-57
2022/06/05 14:52:12;;;;;;;;;;;;;;;24.49;45.17;100507.99;1647809;87;20562;-57
2022/06/05 14:59:13;;;;;;;;;;;;;;;24.36;45.17;100500.00;1666943;85;20218;-57
2022/06/05 15:02:23;;;;;;;;;;;;;;;24.25;45.18;100499.59;1679324;85;20218;-54
2022/06/05 15:05:33;;;;;;;;;;;;;;;24.15;45.25;100485.48;1687441;84;20218;-55
2022/06/05 15:09:00;;;;;;;;;;;;;;;24.13;45.29;100491.06;1671921;86;20541;-56
2022/06/05 15:12:09;;;;;;;;;;;;;;;24.21;45.34;100485.00;1668342;85;20223;-56
2022/06/05 15:15:19;;;;;;;;;;;;;;;24.36;45.36;100480.95;1654286;85;20222;-58
2022/06/05 15:18:26;;;;;;;;;;;;;;;24.53;45.30;100478.34;1677149;85;20223;-56
2022/06/05 15:21:54;;;;;;;;;;;;;;;24.62;45.18;100475.92;1677029;85;20214;-58
2022/06/05 15:25:09;;;;;;;;;;;;;;;24.74;45.12;100473.82;1677989;85;20534;-59
2022/06/05 15:28:25;;;;;;;;;;;;;;;24.85;45.12;100466.65;1677731;85;20251;-60
2022/06/05 15:31:36;;;;;;;;;;;;;;;25.02;45.12;100468.75;1677924;85;20245;-57
2022/06/05 15:35:04;;;;;;;;;;;;;;;25.47;44.97;100468.80;1678831;85;20218;-57
2022/06/05 15:38:21;;;;;;;;;;;;;;;25.66;44.72;100471.44;1679439;85;20255;-60
2022/06/05 15:41:59;;;;;;;;;;;;;;;25.69;44.87;100470.34;1679840;84;20556;-56
2022/06/05 15:45:26;;;;;;;;;;;;;;;25.85;44.55;100471.27;1675921;84;20251;-57
2022/06/05 15:48:38;;;;;;;;;;;;;;;26.13;44.29;100470.87;1658639;86;20533;-57
2022/06/05 15:52:00;;;;;;;;;;;;;;;26.34;44.12;100474.85;1658496;86;20225;-55
2022/06/05 15:55:34;;;;;;;;;;;;;;;26.47;43.90;100470.67;1679699;85;20560;-59
2022/06/05 15:58:50;;;;;;;;;;;;;;;26.53;43.63;100477.16;1651323;87;20582;-57
2022/06/05 16:02:01;;;;;;;;;;;;;;;26.23;43.64;100475.95;1651887;87;20198;-56
2022/06/05 16:05:11;;;;;;;;;;;;;;;26.39;43.67;100471.20;1653234;85;20562;-56
2022/06/05 16:08:40;;;;;;;;;;;;;;;26.38;43.58;100467.58;1668294;85;20520;-56
2022/06/05 16:11:55;;;;;;;;;;;;;;;26.23;43.76;100474.54;1669968;86;20258;-57
2022/06/05 16:15:22;;;;;;;;;;;;;;;26.10;43.87;100471.42;1676823;85;20195;-58
2022/06/05 16:18:38;;;;;;;;;;;;;;;25.71;43.84;100477.08;1676304;85;20219;-59
2022/06/05 16:21:59;;;;;;;;;;;;;;;25.25;43.96;100480.69;1676654;85;20575;-59
2022/06/05 16:25:30;;;;;;;;;;;;;;;24.83;44.13;100480.07;1675699;85;20211;-56
2022/06/05 16:28:56;;;;;;;;;;;;;;;24.51;44.26;100485.34;1677384;84;20207;-57
2022/06/05 16:32:03;;;;;;;;;;;;;;;24.31;44.38;100490.15;1678935;85;20247;-60
2022/06/05 16:38:36;;;;;;;;;;;;;;;23.99;44.58;100498.16;1679389;85;20290;-58
2022/06/05 16:41:52;;;;;;;;;;;;;;;23.85;44.64;100505.22;1679311;85;20228;-58
2022/06/05 16:45:19;;;;;;;;;;;;;;;23.76;44.72;100507.61;1679498;85;20595;-57
2022/06/05 16:48:26;;;;;;;;;;;;;;;23.78;44.77;100508.20;1675373;85;20571;-57
2022/06/05 16:51:48;;;;;;;;;;;;;;;23.80;44.78;100511.56;1677467;85;20219;-59